createdAt,value
2019-03-31T00:02:03.077Z,8.22
2019-03-31T00:06:57.106Z,8.26
2019-03-31T00:11:51.236Z,8.21
2019-03-31T00:16:45.232Z,8.13
2019-03-31T00:21:39.213Z,7.98
2019-03-31T00:26:33.395Z,7.88
2019-03-31T00:31:27.419Z,7.76
2019-03-31T00:36:21.401Z,7.88
2019-03-31T00:41:15.486Z,7.87
2019-03-31T00:46:09.448Z,7.73
2019-03-31T00:51:03.417Z,7.65
2019-03-31T00:55:57.371Z,7.63
2019-03-31T01:00:54.878Z,7.51
2019-03-31T01:11:12.080Z,7.47
2019-03-31T01:16:07.165Z,7.38
2019-03-31T01:21:01.234Z,7.29
2019-03-31T01:25:55.349Z,7.37
2019-03-31T01:30:49.321Z,7.29
2019-03-31T01:35:43.323Z,7.20
2019-03-31T01:40:37.412Z,7.26
2019-03-31T01:45:31.624Z,7.14
2019-03-31T01:50:26.289Z,7.08
2019-03-31T01:55:20.267Z,7.13
2019-03-31T02:00:19.461Z,7.08
2019-03-31T02:05:13.473Z,7.08
2019-03-31T02:10:07.848Z,6.97
2019-03-31T02:15:05.143Z,6.97
2019-03-31T02:19:59.128Z,6.89
2019-03-31T02:24:53.117Z,6.87
2019-03-31T02:29:47.073Z,7.14
2019-03-31T02:34:41.151Z,7.07
2019-03-31T02:39:35.195Z,7.05
2019-03-31T02:44:29.547Z,7.19
2019-03-31T02:49:23.516Z,7.21
2019-03-31T02:54:17.554Z,7.11
2019-03-31T02:59:12.407Z,6.95
2019-03-31T03:04:08.064Z,6.84
2019-03-31T03:09:05.052Z,6.82
2019-03-31T03:14:00.023Z,6.67
2019-03-31T03:18:54.418Z,6.64
2019-03-31T03:23:48.500Z,6.69
2019-03-31T03:28:42.467Z,6.48
2019-03-31T03:33:36.459Z,6.39
2019-03-31T03:38:30.398Z,6.43
2019-03-31T03:43:24.381Z,6.39
2019-03-31T03:48:18.369Z,6.47
2019-03-31T03:53:12.495Z,6.40
2019-03-31T03:58:06.457Z,6.34
2019-03-31T04:03:00.647Z,6.13
2019-03-31T04:07:54.656Z,6.12
2019-03-31T04:12:48.630Z,6.09
2019-03-31T04:17:42.591Z,6.11
2019-03-31T04:22:36.580Z,6.10
2019-03-31T04:27:30.651Z,6.12
2019-03-31T04:32:24.600Z,6.03
2019-03-31T04:37:18.585Z,5.95
2019-03-31T04:42:12.535Z,5.85
2019-03-31T04:47:06.531Z,5.77
2019-03-31T04:52:00.546Z,5.74
2019-03-31T04:56:54.536Z,5.77
2019-03-31T05:01:48.627Z,5.81
2019-03-31T05:06:42.731Z,5.78
2019-03-31T05:11:36.838Z,5.68
2019-03-31T05:16:30.821Z,5.63
2019-03-31T05:21:24.800Z,5.70
2019-03-31T05:26:18.885Z,5.67
2019-03-31T05:31:13.010Z,5.66
2019-03-31T05:36:06.995Z,5.72
2019-03-31T05:41:01.086Z,5.73
2019-03-31T05:45:55.160Z,5.81
2019-03-31T05:50:49.123Z,5.96
2019-03-31T05:55:43.206Z,6.06
2019-03-31T06:00:42.116Z,6.15
2019-03-31T06:05:36.203Z,6.31
2019-03-31T06:10:30.192Z,6.49
2019-03-31T06:15:24.334Z,6.66
2019-03-31T06:20:18.297Z,6.87
2019-03-31T06:25:12.273Z,7.07
2019-03-31T06:30:06.846Z,7.29
2019-03-31T06:35:00.894Z,7.45
2019-03-31T06:39:54.889Z,7.66
2019-03-31T06:44:48.856Z,7.88
2019-03-31T06:49:42.981Z,8.18
2019-03-31T06:54:37.047Z,8.45
2019-03-31T06:59:31.017Z,8.72
2019-03-31T07:04:25.007Z,9.03
2019-03-31T07:09:18.981Z,9.36
2019-03-31T07:17:18.559Z,9.99
2019-03-31T07:22:12.675Z,10.35
2019-03-31T07:27:06.684Z,10.67
2019-03-31T07:32:00.769Z,10.95
2019-03-31T07:36:54.734Z,11.23
2019-03-31T07:41:49.046Z,11.52
2019-03-31T07:46:43.072Z,11.89
2019-03-31T07:51:37.633Z,12.25
2019-03-31T07:56:31.828Z,12.63
2019-03-31T08:01:25.793Z,12.84
2019-03-31T08:06:19.830Z,13.16
2019-03-31T08:11:16.977Z,13.85
2019-03-31T08:16:10.127Z,14.16
2019-03-31T08:21:04.196Z,14.04
2019-03-31T08:25:58.361Z,14.28
2019-03-31T08:30:52.457Z,15.27
2019-03-31T08:35:47.844Z,15.02
2019-03-31T08:40:41.924Z,15.26
2019-03-31T08:46:15.366Z,15.67
2019-03-31T08:51:09.473Z,16.54
2019-03-31T09:01:17.474Z,15.87
2019-03-31T09:06:11.502Z,15.48
2019-03-31T09:11:05.705Z,14.90
2019-03-31T09:15:59.707Z,14.73
2019-03-31T09:20:53.757Z,14.30
2019-03-31T09:25:47.936Z,14.05
2019-03-31T09:30:42.053Z,13.42
2019-03-31T09:35:36.037Z,12.36
2019-03-31T09:40:30.221Z,11.92
2019-03-31T09:45:24.463Z,11.85
2019-03-31T09:50:18.843Z,11.66
2019-03-31T09:55:13.292Z,11.51
2019-03-31T10:00:12.755Z,11.60
2019-03-31T10:05:07.076Z,11.65
2019-03-31T10:10:01.639Z,11.71
2019-03-31T10:16:00.162Z,11.66
2019-03-31T10:20:54.480Z,11.76
2019-03-31T10:25:48.615Z,11.78
2019-03-31T10:30:43.059Z,11.55
2019-03-31T10:35:37.329Z,11.27
2019-03-31T10:40:31.400Z,11.13
2019-03-31T10:45:25.569Z,11.12
2019-03-31T10:50:19.685Z,11.61
2019-03-31T10:55:14.170Z,11.85
2019-03-31T11:00:09.227Z,11.92
2019-03-31T11:05:05.266Z,12.04
2019-03-31T11:09:59.790Z,12.01
2019-03-31T11:14:54.019Z,11.74
2019-03-31T11:19:48.012Z,11.88
2019-03-31T11:24:42.080Z,11.94
2019-03-31T11:29:36.232Z,12.31
2019-03-31T11:34:30.224Z,12.77
2019-03-31T11:39:24.217Z,12.98
2019-03-31T11:44:18.199Z,13.11
2019-03-31T11:49:12.291Z,13.34
2019-03-31T11:54:06.368Z,14.33
2019-03-31T11:59:00.840Z,14.80
2019-03-31T12:03:54.887Z,14.90
2019-03-31T12:08:48.968Z,15.45
2019-03-31T12:13:43.074Z,15.79
2019-03-31T12:18:37.239Z,16.63
2019-03-31T12:23:31.221Z,16.35
2019-03-31T12:28:25.199Z,18.02
2019-03-31T12:33:19.268Z,23.44
2019-03-31T12:38:13.257Z,26.50
2019-03-31T12:43:07.252Z,26.74
2019-03-31T12:48:01.703Z,27.89
2019-03-31T12:52:55.750Z,30.06
2019-03-31T12:57:51.871Z,30.65
2019-03-31T13:02:45.731Z,30.85
2019-03-31T13:07:39.787Z,30.61
2019-03-31T13:12:35.064Z,31.43
2019-03-31T13:17:29.490Z,32.26
2019-03-31T13:22:23.472Z,33.43
2019-03-31T13:27:18.396Z,34.88
2019-03-31T13:32:12.388Z,34.28
2019-03-31T13:37:06.527Z,34.64
2019-03-31T13:42:00.535Z,32.23
2019-03-31T13:46:54.606Z,34.38
2019-03-31T13:51:48.704Z,34.83
2019-03-31T13:56:47.738Z,33.34
2019-03-31T14:01:39.114Z,34.34
2019-03-31T14:06:33.248Z,34.70
2019-03-31T14:11:27.320Z,34.32
2019-03-31T14:16:21.511Z,34.54
2019-03-31T14:21:15.457Z,34.41
2019-03-31T14:26:09.445Z,33.24
2019-03-31T14:31:03.452Z,34.42
2019-03-31T14:35:57.595Z,30.65
2019-03-31T14:40:51.978Z,30.71
2019-03-31T14:45:45.963Z,30.03
2019-03-31T14:50:39.946Z,31.79
2019-03-31T14:55:34.215Z,32.28
2019-03-31T15:00:28.197Z,31.51
2019-03-31T15:05:22.291Z,31.15
2019-03-31T15:10:16.351Z,31.86
2019-03-31T15:15:10.467Z,30.40
2019-03-31T15:20:04.841Z,31.94
2019-03-31T15:24:58.858Z,32.31
2019-03-31T15:29:53.057Z,32.49
2019-03-31T15:34:47.047Z,32.04
2019-03-31T15:39:41.068Z,33.29
2019-03-31T15:44:35.191Z,32.20
2019-03-31T15:49:29.188Z,33.51
2019-03-31T15:54:23.202Z,32.23
2019-03-31T15:59:17.411Z,32.23
2019-03-31T16:04:11.618Z,29.90
2019-03-31T16:09:06.247Z,25.93
2019-03-31T16:14:00.270Z,24.98
2019-03-31T16:18:54.380Z,25.02
2019-03-31T16:23:48.536Z,26.57
2019-03-31T16:28:42.630Z,27.70
2019-03-31T16:33:36.712Z,27.63
2019-03-31T16:38:30.790Z,26.74
2019-03-31T16:46:45.161Z,24.70
2019-03-31T16:51:39.518Z,24.27
2019-03-31T16:56:33.538Z,21.83
2019-03-31T17:01:27.502Z,21.27
2019-03-31T17:06:21.782Z,20.54
2019-03-31T17:11:15.906Z,15.76
2019-03-31T17:16:09.986Z,14.84
2019-03-31T17:21:04.248Z,14.35
2019-03-31T17:25:58.374Z,14.49
2019-03-31T17:30:52.698Z,13.79
2019-03-31T17:35:46.706Z,13.40
2019-03-31T17:40:40.801Z,13.21
2019-03-31T17:45:35.012Z,13.16
2019-03-31T17:50:28.995Z,12.68
2019-03-31T17:55:23.170Z,12.17
2019-03-31T18:00:17.370Z,11.97
2019-03-31T18:05:11.769Z,11.78
2019-03-31T18:10:19.555Z,11.55
2019-03-31T18:16:18.659Z,11.38
2019-03-31T18:21:12.714Z,11.18
2019-03-31T18:26:09.564Z,11.07
2019-03-31T18:31:03.929Z,10.90
2019-03-31T18:35:58.034Z,10.76
2019-03-31T18:40:52.020Z,10.62
2019-03-31T18:45:46.177Z,10.61
2019-03-31T18:50:40.428Z,10.53
2019-03-31T18:55:36.314Z,10.48
2019-03-31T19:00:32.263Z,10.40
2019-03-31T19:05:44.944Z,10.25
2019-03-31T19:10:49.385Z,10.24
2019-03-31T19:15:42.606Z,10.11
2019-03-31T19:21:10.450Z,10.07
2019-03-31T19:25:53.364Z,10.01
2019-03-31T19:30:55.292Z,9.94
2019-03-31T19:35:51.168Z,9.89
2019-03-31T19:41:03.376Z,9.79
2019-03-31T19:46:06.408Z,9.80
2019-03-31T19:51:05.369Z,9.68
2019-03-31T19:56:17.917Z,9.61
2019-03-31T20:01:31.145Z,9.60
2019-03-31T20:06:43.755Z,9.49
2019-03-31T20:11:49.443Z,9.42
2019-03-31T20:16:45.442Z,9.40
2019-03-31T20:21:47.102Z,9.33
2019-03-31T20:26:45.974Z,9.23
2019-03-31T20:31:44.638Z,9.13
2019-03-31T20:36:49.509Z,9.03
2019-03-31T20:41:48.195Z,9.06
2019-03-31T20:46:42.381Z,8.98
2019-03-31T20:51:36.470Z,8.88
2019-03-31T20:56:30.464Z,8.85
2019-03-31T21:01:24.623Z,8.79
2019-03-31T21:06:18.685Z,8.79
2019-03-31T21:11:12.634Z,8.63
2019-03-31T21:16:06.605Z,8.60
2019-03-31T21:21:00.687Z,8.52
2019-03-31T21:25:54.676Z,8.32
2019-03-31T21:30:48.663Z,8.42
2019-03-31T21:35:42.768Z,8.28
2019-03-31T21:40:38.325Z,8.16
2019-03-31T21:45:32.383Z,8.35
2019-03-31T21:50:26.375Z,8.14
2019-03-31T21:55:20.451Z,8.07
2019-03-31T22:00:15.430Z,8.07
2019-03-31T22:05:09.646Z,7.99
2019-03-31T22:10:04.974Z,8.04
2019-03-31T22:14:59.134Z,7.85
2019-03-31T22:19:53.201Z,7.91
2019-03-31T22:24:47.302Z,7.85
2019-03-31T22:29:41.415Z,7.77
2019-03-31T22:34:35.484Z,7.76
2019-03-31T22:39:29.460Z,7.74
2019-03-31T22:44:23.443Z,7.68
2019-03-31T22:49:17.489Z,7.61
2019-03-31T22:54:11.467Z,7.48
2019-03-31T22:59:05.570Z,7.37
2019-03-31T23:03:59.643Z,7.36
2019-03-31T23:08:53.747Z,7.23
2019-03-31T23:13:47.819Z,7.13
2019-03-31T23:18:42.006Z,7.05
2019-03-31T23:23:36.007Z,6.98
2019-03-31T23:28:29.961Z,6.87
2019-03-31T23:33:24.022Z,6.95
2019-03-31T23:38:17.980Z,6.89
2019-03-31T23:43:11.960Z,6.85
2019-03-31T23:48:06.103Z,6.64
2019-03-31T23:53:00.228Z,6.44
2019-03-31T23:57:54.296Z,6.45
